createdAt,value
2023-02-06T00:01:16.455Z,103468.78
2023-02-06T00:03:43.245Z,103459.03
2023-02-06T00:06:10.459Z,103456.38
2023-02-06T00:08:37.268Z,103468.81
2023-02-06T00:11:07.612Z,103459.13
2023-02-06T00:13:35.887Z,103456.47
2023-02-06T00:16:03.737Z,103452.94
2023-02-06T00:18:30.727Z,103452.97
2023-02-06T00:20:58.160Z,103449.47
2023-02-06T00:23:24.906Z,103455.72
2023-02-06T00:25:51.677Z,103445.09
2023-02-06T00:28:18.698Z,103444.25
2023-02-06T00:30:48.971Z,103441.59
2023-02-06T00:33:16.144Z,103436.31
2023-02-06T00:35:42.897Z,103425.72
2023-02-06T00:38:11.722Z,103422.19
2023-02-06T00:40:38.950Z,103409.84
2023-02-06T00:43:06.283Z,103421.38
2023-02-06T00:45:33.576Z,103420.50
2023-02-06T00:48:01.240Z,103416.13
2023-02-06T00:50:28.172Z,103410.81
2023-02-06T00:52:55.000Z,103401.97
2023-02-06T00:55:22.146Z,103395.72
2023-02-06T00:57:49.053Z,103401.97
2023-02-06T01:00:16.845Z,103400.19
2023-02-06T01:02:43.796Z,103405.50
2023-02-06T01:05:11.102Z,103402.00
2023-02-06T01:07:40.869Z,103399.34
2023-02-06T01:10:11.341Z,103394.03
2023-02-06T01:12:38.240Z,103393.16
2023-02-06T01:15:08.225Z,103393.16
2023-02-06T01:17:35.078Z,103396.72
2023-02-06T01:20:02.464Z,103401.16
2023-02-06T01:22:29.318Z,103404.63
2023-02-06T01:24:56.135Z,103407.31
2023-02-06T01:27:22.926Z,103394.88
2023-02-06T01:29:49.720Z,103398.38
2023-02-06T01:32:16.833Z,103403.66
2023-02-06T01:34:43.753Z,103407.16
2023-02-06T01:37:10.662Z,103411.56
2023-02-06T01:39:37.578Z,103414.19
2023-02-06T01:42:04.766Z,103409.72
2023-02-06T01:44:33.637Z,103415.88
2023-02-06T01:47:00.534Z,103417.56
2023-02-06T01:49:45.909Z,103413.19
2023-02-06T01:52:24.592Z,103414.81
2023-02-06T01:54:57.725Z,103428.09
2023-02-06T01:57:27.250Z,103424.56
2023-02-06T02:00:00.844Z,103420.06
2023-02-06T02:02:29.394Z,103414.69
2023-02-06T02:04:57.641Z,103421.69
2023-02-06T02:07:25.773Z,103417.25
2023-02-06T02:09:53.546Z,103421.69
2023-02-06T02:12:20.860Z,103417.31
2023-02-06T02:14:50.836Z,103424.34
2023-02-06T02:17:52.025Z,103399.63
2023-02-06T02:20:49.870Z,103417.34
2023-02-06T02:23:38.582Z,103412.97
2023-02-06T02:26:27.499Z,103396.19
2023-02-06T02:29:18.373Z,103406.81
2023-02-06T02:32:16.426Z,103403.38
2023-02-06T02:35:10.875Z,103399.81
2023-02-06T02:38:00.843Z,103392.69
2023-02-06T02:40:36.652Z,103384.72
2023-02-06T02:43:38.545Z,103386.50
2023-02-06T02:46:14.830Z,103379.41
2023-02-06T02:48:46.532Z,103381.19
2023-02-06T02:51:14.808Z,103368.84
2023-02-06T02:53:41.577Z,103368.81
2023-02-06T02:56:19.862Z,103384.78
2023-02-06T02:58:51.619Z,103384.78
2023-02-06T03:01:25.235Z,103383.03
2023-02-06T03:03:55.759Z,103385.69
2023-02-06T03:06:44.585Z,103386.63
2023-02-06T03:09:54.098Z,103381.44
2023-02-06T03:12:43.378Z,103377.91
2023-02-06T03:15:44.537Z,103377.97
2023-02-06T03:18:29.899Z,103368.34
2023-02-06T03:20:59.146Z,103363.09
2023-02-06T03:23:34.818Z,103362.25
2023-02-06T03:26:07.770Z,103356.09
2023-02-06T03:28:39.689Z,103367.69
2023-02-06T03:31:13.722Z,103366.84
2023-02-06T03:33:52.696Z,103368.69
2023-02-06T03:36:20.521Z,103365.19
2023-02-06T03:38:50.262Z,103363.47
2023-02-06T03:41:27.347Z,103360.00
2023-02-06T03:43:55.361Z,103367.13
2023-02-06T03:46:26.105Z,103365.41
2023-02-06T03:48:59.388Z,103361.88
2023-02-06T03:51:33.836Z,103348.66
2023-02-06T03:54:04.685Z,103340.75
2023-02-06T03:56:44.526Z,103331.94
2023-02-06T03:59:11.881Z,103344.38
2023-02-06T04:01:52.086Z,103346.19
2023-02-06T04:04:21.742Z,103346.19
2023-02-06T04:06:48.593Z,103345.34
2023-02-06T04:09:15.341Z,103348.88
2023-02-06T04:11:42.170Z,103346.25
2023-02-06T04:14:08.915Z,103339.16
2023-02-06T04:16:35.845Z,103346.25
2023-02-06T04:19:02.674Z,103350.66
2023-02-06T04:21:29.413Z,103348.00
2023-02-06T04:23:56.534Z,103349.78
2023-02-06T04:26:23.367Z,103353.31
2023-02-06T04:28:50.175Z,103355.97
2023-02-06T04:31:17.052Z,103358.63
2023-02-06T04:33:43.931Z,103342.69
2023-02-06T04:36:10.784Z,103348.88
2023-02-06T04:38:37.932Z,103353.31
2023-02-06T04:41:06.921Z,103353.31
2023-02-06T04:43:34.396Z,103354.16
2023-02-06T04:46:01.265Z,103360.38
2023-02-06T04:48:28.228Z,103364.78
2023-02-06T04:50:55.013Z,103367.41
2023-02-06T04:53:21.868Z,103356.88
2023-02-06T04:55:49.014Z,103348.00
2023-02-06T04:58:15.777Z,103339.19
2023-02-06T05:00:42.581Z,103333.00
2023-02-06T05:03:09.348Z,103330.34
2023-02-06T05:05:36.403Z,103339.22
2023-02-06T05:08:03.296Z,103338.34
2023-02-06T05:10:30.373Z,103340.09
2023-02-06T05:12:57.225Z,103337.44
2023-02-06T05:15:24.221Z,103340.03
2023-02-06T05:17:51.110Z,103329.41
2023-02-06T05:20:18.035Z,103320.50
2023-02-06T05:22:45.018Z,103332.91
2023-02-06T05:25:11.793Z,103318.78
2023-02-06T05:27:38.563Z,103317.00
2023-02-06T05:30:06.051Z,103316.16
2023-02-06T05:32:32.817Z,103315.28
2023-02-06T05:34:59.614Z,103322.38
2023-02-06T05:37:26.577Z,103327.69
2023-02-06T05:39:53.395Z,103324.97
2023-02-06T05:42:20.212Z,103328.47
2023-02-06T05:44:47.084Z,103332.03
2023-02-06T05:47:13.986Z,103325.81
2023-02-06T05:49:40.997Z,103343.50
2023-02-06T05:52:07.752Z,103324.94
2023-02-06T05:54:34.552Z,103311.69
2023-02-06T05:57:01.409Z,103316.13
2023-02-06T05:59:28.286Z,103311.69
2023-02-06T06:01:55.342Z,103305.53
2023-02-06T06:04:22.627Z,103319.72
2023-02-06T06:06:49.512Z,103317.13
2023-02-06T06:09:16.381Z,103319.84
2023-02-06T06:11:43.305Z,103314.56
2023-02-06T06:14:11.751Z,103318.16
2023-02-06T06:16:39.008Z,103307.56
2023-02-06T06:19:05.765Z,103317.31
2023-02-06T06:21:34.197Z,103311.16
2023-02-06T06:24:02.087Z,103308.56
2023-02-06T06:26:29.233Z,103313.91
2023-02-06T06:28:56.822Z,103310.41
2023-02-06T06:31:23.853Z,103300.72
2023-02-06T06:33:50.803Z,103304.31
2023-02-06T06:36:17.570Z,103297.31
2023-02-06T06:38:44.526Z,103299.97
2023-02-06T06:41:11.433Z,103292.94
2023-02-06T06:43:38.422Z,103295.63
2023-02-06T06:46:06.374Z,103285.94
2023-02-06T06:48:33.312Z,103280.63
2023-02-06T06:51:00.401Z,103281.50
2023-02-06T06:53:27.175Z,103286.81
2023-02-06T06:55:54.188Z,103285.09
2023-02-06T06:58:21.499Z,103275.38
2023-02-06T07:00:48.457Z,103260.38
2023-02-06T07:03:15.340Z,103263.06
2023-02-06T07:05:42.664Z,103264.81
2023-02-06T07:08:09.794Z,103270.06
2023-02-06T07:10:36.542Z,103253.31
2023-02-06T07:13:03.357Z,103241.81
2023-02-06T07:15:30.210Z,103243.56
2023-02-06T07:17:57.580Z,103236.50
2023-02-06T07:20:24.432Z,103232.97
2023-02-06T07:22:51.441Z,103233.88
2023-02-06T07:25:20.442Z,103226.84
2023-02-06T07:27:47.867Z,103239.25
2023-02-06T07:30:15.642Z,103232.19
2023-02-06T07:32:42.435Z,103232.19
2023-02-06T07:35:09.587Z,103237.50
2023-02-06T07:37:36.537Z,103233.16
2023-02-06T07:40:05.763Z,103237.59
2023-02-06T07:42:33.917Z,103248.19
2023-02-06T07:45:00.966Z,103245.59
2023-02-06T07:47:27.757Z,103251.78
2023-02-06T07:49:54.624Z,103250.00
2023-02-06T07:52:22.699Z,103249.16
2023-02-06T07:54:49.458Z,103256.22
2023-02-06T07:57:16.474Z,103249.19
2023-02-06T07:59:43.295Z,103241.25
2023-02-06T08:02:12.274Z,103253.63
2023-02-06T08:04:39.925Z,103246.53
2023-02-06T08:07:09.972Z,103239.47
2023-02-06T08:09:37.150Z,103249.19
2023-02-06T08:12:04.245Z,103246.53
2023-02-06T08:14:31.711Z,103241.19
2023-02-06T08:16:58.490Z,103235.84
2023-02-06T08:19:25.753Z,103233.16
2023-02-06T08:21:53.080Z,103235.78
2023-02-06T08:24:19.858Z,103231.31
2023-02-06T08:26:47.069Z,103224.19
2023-02-06T08:29:14.570Z,103221.50
2023-02-06T08:31:43.391Z,103224.06
2023-02-06T08:34:13.462Z,103222.28
2023-02-06T08:36:42.145Z,103231.97
2023-02-06T08:39:14.002Z,103232.78
2023-02-06T08:41:43.536Z,103236.31
2023-02-06T08:44:16.966Z,103251.28
2023-02-06T08:46:46.256Z,103248.56
2023-02-06T08:49:19.801Z,103252.91
2023-02-06T08:51:49.848Z,103246.66
2023-02-06T08:54:20.944Z,103251.88
2023-02-06T08:56:48.886Z,103250.84
2023-02-06T08:59:18.151Z,103248.97
2023-02-06T09:01:45.914Z,103247.00
2023-02-06T09:04:14.332Z,103241.56
2023-02-06T09:06:44.637Z,103226.28
2023-02-06T09:09:12.793Z,103226.09
2023-02-06T09:11:40.162Z,103214.34
2023-02-06T09:14:08.975Z,103207.97
2023-02-06T09:16:38.054Z,103206.84
2023-02-06T09:19:06.610Z,103198.69
2023-02-06T09:21:35.956Z,103195.81
2023-02-06T09:24:07.276Z,103198.16
2023-02-06T09:26:44.846Z,103194.34
2023-02-06T09:29:20.599Z,103194.13
2023-02-06T09:31:47.899Z,103200.06
2023-02-06T09:34:15.257Z,103205.16
2023-02-06T09:36:42.282Z,103207.56
2023-02-06T09:39:09.699Z,103201.97
2023-02-06T09:42:18.001Z,103200.09
2023-02-06T09:44:51.530Z,103202.47
2023-02-06T09:47:30.594Z,103208.44
2023-02-06T09:50:02.969Z,103200.25
2023-02-06T09:52:52.397Z,103210.78
2023-02-06T09:55:48.272Z,103205.25
2023-02-06T09:58:50.012Z,103198.81
2023-02-06T10:01:42.980Z,103203.03
2023-02-06T10:04:28.016Z,103199.31
2023-02-06T10:07:07.929Z,103192.00
2023-02-06T10:09:45.388Z,103202.44
2023-02-06T10:12:27.369Z,103204.91
2023-02-06T10:15:18.692Z,103211.78
2023-02-06T10:17:54.434Z,103217.78
2023-02-06T10:20:54.301Z,103212.28
2023-02-06T10:23:30.398Z,103208.50
2023-02-06T10:26:17.430Z,103210.97
2023-02-06T10:28:57.225Z,103206.34
2023-02-06T10:31:34.887Z,103209.69
2023-02-06T10:34:19.938Z,103211.22
2023-02-06T10:37:15.599Z,103207.47
2023-02-06T10:39:59.801Z,103200.09
2023-02-06T10:42:35.702Z,103195.47
2023-02-06T10:45:36.178Z,103181.13
2023-02-06T10:48:15.167Z,103190.69
2023-02-06T10:50:52.710Z,103186.94
2023-02-06T10:53:29.433Z,103190.41
2023-02-06T10:56:17.627Z,103195.53
2023-02-06T10:58:56.612Z,103184.69
2023-02-06T11:01:27.119Z,103178.28
2023-02-06T11:04:17.270Z,103178.16
2023-02-06T11:06:47.154Z,103170.78
2023-02-06T11:09:14.728Z,103173.28
2023-02-06T11:11:48.548Z,103167.72
2023-02-06T11:14:22.402Z,103163.94
2023-02-06T11:16:50.282Z,103170.81
2023-02-06T11:19:25.548Z,103156.28
2023-02-06T11:22:04.638Z,103163.19
2023-02-06T11:24:31.724Z,103161.13
2023-02-06T11:27:03.523Z,103149.34
2023-02-06T11:29:37.161Z,103136.56
2023-02-06T11:32:07.965Z,103130.06
2023-02-06T11:35:00.258Z,103123.63
2023-02-06T11:37:40.609Z,103126.81
2023-02-06T11:40:19.907Z,103116.75
2023-02-06T11:42:50.311Z,103121.75
2023-02-06T11:45:23.127Z,103122.50
2023-02-06T11:47:49.962Z,103118.78
2023-02-06T11:50:29.929Z,103117.66
2023-02-06T11:53:20.042Z,103106.00
2023-02-06T11:56:16.529Z,103097.72
2023-02-06T11:58:44.779Z,103098.41
2023-02-06T12:01:21.889Z,103099.03
2023-02-06T12:03:58.311Z,103096.22
2023-02-06T12:06:32.749Z,103080.84
2023-02-06T12:09:10.682Z,103082.47
2023-02-06T12:11:48.865Z,103076.00
2023-02-06T12:14:29.647Z,103082.09
2023-02-06T12:16:59.032Z,103073.88
2023-02-06T12:19:33.877Z,103078.09
2023-02-06T12:22:07.350Z,103072.53
2023-02-06T12:24:40.307Z,103067.88
2023-02-06T12:27:28.821Z,103065.00
2023-02-06T12:30:27.322Z,103063.78
2023-02-06T12:33:05.724Z,103060.78
2023-02-06T12:35:47.876Z,103060.59
2023-02-06T12:38:40.993Z,103055.81
2023-02-06T12:41:32.538Z,103063.53
2023-02-06T12:44:09.495Z,103057.13
2023-02-06T12:46:36.561Z,103055.81
2023-02-06T12:49:24.380Z,103057.34
2023-02-06T12:52:00.220Z,103048.09
2023-02-06T12:54:47.149Z,103056.81
2023-02-06T12:57:23.830Z,103053.84
2023-02-06T13:00:28.383Z,103047.41
2023-02-06T13:03:16.650Z,103048.81
2023-02-06T13:06:10.241Z,103050.19
2023-02-06T13:08:56.127Z,103057.16
2023-02-06T13:11:29.081Z,103055.06
2023-02-06T13:14:24.747Z,103041.50
2023-02-06T13:16:55.326Z,103047.44
2023-02-06T13:19:30.352Z,103042.78
2023-02-06T13:22:19.436Z,103039.81
2023-02-06T13:24:50.192Z,103032.47
2023-02-06T13:27:23.818Z,103030.59
2023-02-06T13:29:54.253Z,103024.16
2023-02-06T13:32:24.252Z,103009.75
2023-02-06T13:35:14.899Z,103012.22
2023-02-06T13:37:46.802Z,103001.25
2023-02-06T13:40:24.094Z,103003.94
2023-02-06T13:42:57.854Z,103004.78
2023-02-06T13:45:32.724Z,103003.63
2023-02-06T13:48:14.807Z,102994.84
2023-02-06T13:50:44.531Z,103002.84
2023-02-06T13:53:36.940Z,102988.41
2023-02-06T13:56:44.436Z,102991.09
2023-02-06T13:59:21.115Z,102990.13
2023-02-06T14:01:48.157Z,102985.63
2023-02-06T14:04:24.783Z,102981.03
2023-02-06T14:07:12.430Z,102975.66
2023-02-06T14:09:56.619Z,102977.47
2023-02-06T14:12:50.941Z,102973.94
2023-02-06T14:15:56.353Z,102977.56
2023-02-06T14:18:35.285Z,102980.09
2023-02-06T14:21:35.468Z,102977.56
2023-02-06T14:24:34.782Z,102974.97
2023-02-06T14:27:39.438Z,102977.56
2023-02-06T14:30:42.764Z,102972.03
2023-02-06T14:33:48.452Z,102968.41
2023-02-06T14:37:16.855Z,102965.72
2023-02-06T14:40:12.110Z,102970.47
2023-02-06T14:42:43.784Z,102970.47
2023-02-06T14:45:38.593Z,102956.25
2023-02-06T14:48:30.956Z,102954.47
2023-02-06T14:50:59.670Z,102957.25
2023-02-06T14:53:33.003Z,102957.16
2023-02-06T14:56:21.447Z,102954.66
2023-02-06T14:58:51.511Z,102959.06
2023-02-06T15:01:18.324Z,102960.81
2023-02-06T15:03:47.189Z,102954.66
2023-02-06T15:06:38.623Z,102953.69
2023-02-06T15:09:07.786Z,102955.50
2023-02-06T15:11:35.196Z,102947.53
2023-02-06T15:14:16.718Z,102953.94
2023-02-06T15:16:50.228Z,102957.56
2023-02-06T15:19:27.551Z,102951.53
2023-02-06T15:22:07.521Z,102954.31
2023-02-06T15:25:05.128Z,102951.72
2023-02-06T15:27:36.127Z,102954.53
2023-02-06T15:30:22.739Z,102948.31
2023-02-06T15:32:53.812Z,102948.44
2023-02-06T15:35:34.041Z,102949.47
2023-02-06T15:38:22.920Z,102947.00
2023-02-06T15:40:55.484Z,102944.25
2023-02-06T15:43:25.594Z,102945.28
2023-02-06T15:46:02.538Z,102948.28
2023-02-06T15:48:43.628Z,102938.47
2023-02-06T15:51:28.488Z,102935.84
2023-02-06T15:54:09.600Z,102930.66
2023-02-06T15:56:41.352Z,102923.59
2023-02-06T15:59:20.961Z,102927.22
2023-02-06T16:01:48.968Z,102921.06
2023-02-06T16:04:31.648Z,102917.59
2023-02-06T16:07:15.471Z,102910.63
2023-02-06T16:09:49.628Z,102918.03
2023-02-06T16:12:18.175Z,102911.94
2023-02-06T16:14:57.428Z,102916.59
2023-02-06T16:17:31.774Z,102902.53
2023-02-06T16:20:24.819Z,102909.78
2023-02-06T16:22:57.106Z,102911.72
2023-02-06T16:25:33.143Z,102902.22
2023-02-06T16:28:00.583Z,102900.63
2023-02-06T16:30:35.021Z,102908.13
2023-02-06T16:33:30.372Z,102902.22
2023-02-06T16:35:57.434Z,102907.81
2023-02-06T16:38:24.312Z,102914.28
2023-02-06T16:40:51.361Z,102909.16
2023-02-06T16:43:20.513Z,102906.84
2023-02-06T16:45:49.203Z,102900.84
2023-02-06T16:48:18.052Z,102896.69
2023-02-06T16:50:48.172Z,102896.19
2023-02-06T16:53:22.969Z,102898.31
2023-02-06T16:55:50.165Z,102894.31
2023-02-06T16:58:21.857Z,102898.06
2023-02-06T17:00:49.637Z,102894.03
2023-02-06T17:03:17.839Z,102900.59
2023-02-06T17:05:46.921Z,102895.66
2023-02-06T17:08:24.996Z,102896.91
2023-02-06T17:10:52.534Z,102899.91
2023-02-06T17:13:23.258Z,102901.16
2023-02-06T17:15:53.363Z,102896.06
2023-02-06T17:18:23.078Z,102907.09
2023-02-06T17:20:52.965Z,102907.25
2023-02-06T17:23:20.595Z,102917.31
2023-02-06T17:25:47.484Z,102909.50
2023-02-06T17:28:20.580Z,102909.72
2023-02-06T17:30:49.009Z,102908.16
2023-02-06T17:33:15.878Z,102912.81
2023-02-06T17:35:43.158Z,102910.19
2023-02-06T17:38:10.607Z,102908.56
2023-02-06T17:40:41.036Z,102914.09
2023-02-06T17:43:08.482Z,102909.81
2023-02-06T17:45:38.923Z,102910.72
2023-02-06T17:48:06.992Z,102917.91
2023-02-06T17:50:37.731Z,102917.09
2023-02-06T17:53:06.207Z,102924.06
2023-02-06T17:55:35.329Z,102925.06
2023-02-06T17:58:02.507Z,102917.03
2023-02-06T18:00:29.739Z,102916.94
2023-02-06T18:02:59.563Z,102916.84
2023-02-06T18:05:26.986Z,102919.56
2023-02-06T18:07:54.067Z,102922.19
2023-02-06T18:10:24.032Z,102913.25
2023-02-06T18:12:50.822Z,102910.47
2023-02-06T18:15:18.025Z,102908.66
2023-02-06T18:17:44.816Z,102903.31
2023-02-06T18:20:13.518Z,102894.34
2023-02-06T18:22:41.403Z,102905.88
2023-02-06T18:25:14.817Z,102907.66
2023-02-06T18:27:45.851Z,102913.84
2023-02-06T18:30:14.991Z,102909.38
2023-02-06T18:32:41.929Z,102906.69
2023-02-06T18:35:09.581Z,102907.66
2023-02-06T18:37:36.495Z,102909.47
2023-02-06T18:40:04.404Z,102908.50
2023-02-06T18:42:49.741Z,102914.72
2023-02-06T18:45:18.624Z,102912.25
2023-02-06T18:47:45.678Z,102914.16
2023-02-06T18:50:13.146Z,102912.50
2023-02-06T18:52:40.588Z,102909.13
2023-02-06T18:55:08.433Z,102907.44
2023-02-06T18:57:36.365Z,102909.38
2023-02-06T19:00:07.111Z,102902.50
2023-02-06T19:02:34.300Z,102912.44
2023-02-06T19:05:01.890Z,102903.81
2023-02-06T19:07:29.230Z,102899.47
2023-02-06T19:09:58.700Z,102897.09
2023-02-06T19:12:28.648Z,102892.84
2023-02-06T19:14:57.443Z,102900.25
2023-02-06T19:17:26.550Z,102900.44
2023-02-06T19:19:54.341Z,102889.13
2023-02-06T19:22:21.172Z,102886.69
2023-02-06T19:24:48.150Z,102885.13
2023-02-06T19:27:15.011Z,102896.94
2023-02-06T19:29:42.308Z,102894.50
2023-02-06T19:32:10.317Z,102893.78
2023-02-06T19:34:39.915Z,102891.25
2023-02-06T19:37:10.374Z,102894.97
2023-02-06T19:39:40.354Z,102892.47
2023-02-06T19:42:10.439Z,102899.72
2023-02-06T19:44:38.015Z,102905.22
2023-02-06T19:47:04.964Z,102895.63
2023-02-06T19:49:32.304Z,102896.72
2023-02-06T19:52:00.722Z,102904.91
2023-02-06T19:54:28.007Z,102907.72
2023-02-06T19:56:55.256Z,102901.63
2023-02-06T19:59:27.538Z,102901.84
2023-02-06T20:02:02.698Z,102903.81
2023-02-06T20:04:35.043Z,102912.81
2023-02-06T20:07:02.805Z,102907.59
2023-02-06T20:09:30.644Z,102912.16
2023-02-06T20:11:57.967Z,102899.84
2023-02-06T20:14:26.003Z,102894.63
2023-02-06T20:16:53.050Z,102893.00
2023-02-06T20:19:25.020Z,102893.13
2023-02-06T20:21:56.679Z,102889.69
2023-02-06T20:24:27.780Z,102890.91
2023-02-06T20:27:01.765Z,102892.63
2023-02-06T20:29:36.588Z,102891.94
2023-02-06T20:32:05.695Z,102889.34
2023-02-06T20:34:33.701Z,102890.34
2023-02-06T20:37:00.543Z,102892.25
2023-02-06T20:39:27.744Z,102887.03
2023-02-06T20:41:54.785Z,102896.03
2023-02-06T20:44:22.062Z,102890.84
2023-02-06T20:46:49.873Z,102895.38
2023-02-06T20:49:26.474Z,102889.25
2023-02-06T20:51:53.832Z,102882.28
2023-02-06T20:54:21.842Z,102891.22
2023-02-06T20:56:48.992Z,102892.25
2023-02-06T20:59:20.577Z,102890.56
2023-02-06T21:01:48.096Z,102881.78
2023-02-06T21:04:16.724Z,102900.53
2023-02-06T21:06:44.548Z,102890.84
2023-02-06T21:09:12.440Z,102891.91
2023-02-06T21:11:48.858Z,102890.16
2023-02-06T21:14:16.963Z,102893.78
2023-02-06T21:16:46.504Z,102889.41
2023-02-06T21:19:16.725Z,102887.69
2023-02-06T21:21:45.989Z,102888.66
2023-02-06T21:24:14.105Z,102886.06
2023-02-06T21:26:41.081Z,102882.66
2023-02-06T21:29:08.320Z,102885.34
2023-02-06T21:31:38.549Z,102888.91
2023-02-06T21:34:21.526Z,102893.50
2023-02-06T21:36:49.065Z,102890.00
2023-02-06T21:39:22.084Z,102888.34
2023-02-06T21:41:54.019Z,102889.28
2023-02-06T21:44:24.159Z,102891.09
2023-02-06T21:46:51.806Z,102889.38
2023-02-06T21:49:19.519Z,102896.50
2023-02-06T21:51:46.729Z,102887.69
2023-02-06T21:54:13.570Z,102893.91
2023-02-06T21:56:40.346Z,102890.41
2023-02-06T21:59:08.224Z,102894.09
2023-02-06T22:01:35.736Z,102898.56
2023-02-06T22:04:03.587Z,102912.78
2023-02-06T22:06:31.056Z,102904.88
2023-02-06T22:09:05.323Z,102907.56
2023-02-06T22:11:32.973Z,102911.22
2023-02-06T22:14:07.004Z,102912.94
2023-02-06T22:16:34.228Z,102913.03
2023-02-06T22:19:01.091Z,102907.72
2023-02-06T22:21:30.382Z,102906.81
2023-02-06T22:24:01.293Z,102901.53
2023-02-06T22:26:30.412Z,102904.28
2023-02-06T22:29:01.041Z,102898.97
2023-02-06T22:31:32.228Z,102896.38
2023-02-06T22:34:00.634Z,102899.03
2023-02-06T22:36:31.584Z,102895.56
2023-02-06T22:39:03.725Z,102891.16
2023-02-06T22:41:30.845Z,102876.16
2023-02-06T22:43:58.484Z,102877.09
2023-02-06T22:46:30.352Z,102886.91
2023-02-06T22:48:57.858Z,102875.44
2023-02-06T22:51:25.586Z,102878.13
2023-02-06T22:53:52.969Z,102870.16
2023-02-06T22:56:27.157Z,102880.84
2023-02-06T22:59:19.652Z,102873.88
2023-02-06T23:02:00.447Z,102879.22
2023-02-06T23:04:30.737Z,102877.50
2023-02-06T23:06:57.834Z,102868.69
2023-02-06T23:09:32.129Z,102874.00
2023-02-06T23:12:01.078Z,102881.19
2023-02-06T23:14:30.837Z,102877.63
2023-02-06T23:17:00.388Z,102882.13
2023-02-06T23:19:28.490Z,102883.06
2023-02-06T23:21:55.541Z,102884.88
2023-02-06T23:24:22.528Z,102883.13
2023-02-06T23:26:51.767Z,102879.66
2023-02-06T23:29:20.681Z,102883.25
2023-02-06T23:31:48.859Z,102891.25
2023-02-06T23:34:18.120Z,102885.16
2023-02-06T23:36:45.264Z,102878.13
2023-02-06T23:39:12.602Z,102871.94
2023-02-06T23:41:39.878Z,102872.88
2023-02-06T23:44:08.274Z,102869.38
2023-02-06T23:46:37.377Z,102866.75
2023-02-06T23:49:05.645Z,102865.94
2023-02-06T23:51:33.414Z,102874.81
2023-02-06T23:54:00.488Z,102872.25
2023-02-06T23:56:30.582Z,102866.94
2023-02-06T23:58:59.489Z,102878.53
